CheckWX is a tool to help pilots better visualize weather data.  It is not intended as a substitute for an official pre-flight weather briefing.

01:44:50 UTC

LEEC METAR
Sevilla / El Coper Airport
Sevilla, Spain
Current

13 hours ago

LEEC 031300Z VRB05KT CAVOK 32/09 Q1017
Observed
Jul-3 @ 13:00 UTC
Wind
  • Variable at 5 KTS
Visibility
10,000+ meters
Flight Rules
VFR
Cloud Levels
  • Clear skies
Temperature
32°C / 90°F
Dewpoint
C / 48°F
Humidity
24%
Altimeter
30.03" Hg
Pressure
1016.92 hPa
Previous

14 hours ago

LEEC 031200Z 19006KT 140V280 CAVOK 31/11 Q1017
Observed
Jul-3 @ 12:00 UTC
Wind
  • 190° at 6 KTS
Visibility
10,000+ meters
Flight Rules
VFR
Cloud Levels
  • Clear skies
Temperature
31°C / 88°F
Dewpoint
11°C / 52°F
Humidity
29%
Altimeter
30.03" Hg
Pressure
1016.92 hPa
Previous

15 hours ago

LEEC 031100Z 32004KT 260V030 CAVOK 30/08 Q1018
Observed
Jul-3 @ 11:00 UTC
Wind
  • 320° at 4 KTS
Visibility
10,000+ meters
Flight Rules
VFR
Cloud Levels
  • Clear skies
Temperature
30°C / 86°F
Dewpoint
C / 46°F
Humidity
25%
Altimeter
30.06" Hg
Pressure
1017.92 hPa